createdAt,value
2022-09-01T00:00:50.830Z,17.59
2022-09-01T00:03:19.713Z,17.57
2022-09-01T00:05:46.297Z,17.55
2022-09-01T00:08:16.303Z,17.54
2022-09-01T00:10:45.210Z,17.50
2022-09-01T00:13:11.630Z,17.46
2022-09-01T00:15:38.139Z,17.43
2022-09-01T00:18:04.715Z,17.40
2022-09-01T00:20:32.007Z,17.39
2022-09-01T00:23:00.515Z,17.37
2022-09-01T00:25:28.252Z,17.37
2022-09-01T00:27:59.240Z,17.33
2022-09-01T00:30:26.200Z,17.33
2022-09-01T00:32:52.639Z,17.31
2022-09-01T00:35:19.924Z,17.31
2022-09-01T00:37:46.361Z,17.29
2022-09-01T00:40:14.416Z,17.27
2022-09-01T00:42:41.187Z,17.26
2022-09-01T00:45:08.907Z,17.24
2022-09-01T00:47:37.636Z,17.22
2022-09-01T00:50:06.383Z,17.21
2022-09-01T00:52:37.683Z,17.17
2022-09-01T00:55:15.240Z,17.14
2022-09-01T00:57:42.319Z,17.12
2022-09-01T01:00:18.735Z,17.12
2022-09-01T01:02:45.829Z,17.10
2022-09-01T01:05:15.125Z,17.09
2022-09-01T01:07:47.581Z,17.07
2022-09-01T01:10:16.020Z,17.06
2022-09-01T01:12:43.832Z,17.05
2022-09-01T01:15:12.085Z,17.04
2022-09-01T01:17:38.894Z,17.02
2022-09-01T01:20:26.042Z,17.01
2022-09-01T01:23:10.751Z,17.00
2022-09-01T01:25:47.000Z,16.99
2022-09-01T01:28:18.619Z,16.97
2022-09-01T01:30:52.087Z,16.96
2022-09-01T01:33:21.777Z,16.98
2022-09-01T01:35:51.780Z,16.99
2022-09-01T01:38:22.633Z,16.97
2022-09-01T01:40:49.586Z,16.99
2022-09-01T01:43:19.993Z,16.99
2022-09-01T01:45:49.100Z,17.00
2022-09-01T01:48:22.730Z,17.01
2022-09-01T01:50:50.670Z,17.02
2022-09-01T01:53:19.130Z,17.02
2022-09-01T01:55:50.201Z,17.00
2022-09-01T01:58:19.705Z,17.01
2022-09-01T02:00:48.454Z,16.99
2022-09-01T02:03:20.164Z,16.98
2022-09-01T02:05:48.563Z,17.00
2022-09-01T02:08:16.005Z,16.99
2022-09-01T02:10:45.480Z,16.99
2022-09-01T02:13:17.411Z,16.98
2022-09-01T02:15:50.381Z,16.97
2022-09-01T02:18:24.721Z,16.94
2022-09-01T02:20:52.218Z,16.94
2022-09-01T02:23:23.323Z,16.94
2022-09-01T02:26:14.573Z,16.95
2022-09-01T02:28:42.543Z,16.95
2022-09-01T02:31:11.246Z,16.94
2022-09-01T02:33:39.309Z,16.95
2022-09-01T02:36:09.140Z,16.94
2022-09-01T02:38:35.871Z,16.93
2022-09-01T02:41:05.598Z,16.92
2022-09-01T02:43:32.061Z,16.93
2022-09-01T02:46:01.073Z,16.94
2022-09-01T02:48:37.387Z,16.96
2022-09-01T02:51:10.905Z,16.98
2022-09-01T02:53:39.303Z,17.00
2022-09-01T02:56:09.572Z,17.00
2022-09-01T02:58:45.772Z,17.01
2022-09-01T03:01:34.683Z,17.02
2022-09-01T03:04:05.576Z,17.01
2022-09-01T03:06:34.421Z,17.01
2022-09-01T03:09:02.403Z,17.01
2022-09-01T03:11:30.976Z,17.01
2022-09-01T03:13:57.478Z,16.99
2022-09-01T03:16:24.171Z,17.01
2022-09-01T03:18:51.854Z,17.03
2022-09-01T03:21:19.421Z,17.02
2022-09-01T03:23:47.119Z,17.03
2022-09-01T03:26:14.749Z,17.04
2022-09-01T03:28:41.249Z,17.04
2022-09-01T03:31:08.901Z,17.04
2022-09-01T03:33:36.546Z,17.04
2022-09-01T03:36:03.412Z,17.03
2022-09-01T03:38:29.834Z,17.03
2022-09-01T03:41:00.866Z,17.03
2022-09-01T03:43:35.457Z,17.04
2022-09-01T03:46:02.817Z,17.04
2022-09-01T03:48:30.869Z,17.02
2022-09-01T03:51:02.474Z,17.03
2022-09-01T03:53:31.392Z,17.04
2022-09-01T03:55:58.842Z,17.04
2022-09-01T03:58:25.902Z,17.05
2022-09-01T04:00:55.374Z,17.05
2022-09-01T04:03:31.166Z,17.06
2022-09-01T04:05:59.578Z,17.05
2022-09-01T04:08:32.397Z,17.05
2022-09-01T04:11:02.937Z,17.05
2022-09-01T04:13:38.146Z,17.07
2022-09-01T04:16:10.701Z,17.06
2022-09-01T04:18:37.401Z,17.05
2022-09-01T04:21:07.173Z,17.06
2022-09-01T04:23:35.071Z,17.07
2022-09-01T04:26:09.048Z,17.09
2022-09-01T04:28:45.922Z,17.08
2022-09-01T04:31:20.675Z,17.09
2022-09-01T04:33:49.979Z,17.08
2022-09-01T04:36:23.936Z,17.09
2022-09-01T04:38:56.149Z,17.10
2022-09-01T04:41:25.605Z,17.09
2022-09-01T04:43:56.402Z,17.08
2022-09-01T04:46:25.944Z,17.10
2022-09-01T04:48:53.253Z,17.10
2022-09-01T04:51:20.764Z,17.13
2022-09-01T04:53:48.862Z,17.14
2022-09-01T04:56:20.669Z,17.15
2022-09-01T04:58:47.886Z,17.16
2022-09-01T05:01:20.215Z,17.17
2022-09-01T05:03:48.219Z,17.18
2022-09-01T05:06:19.969Z,17.17
2022-09-01T05:08:46.547Z,17.18
2022-09-01T05:11:16.899Z,17.21
2022-09-01T05:13:45.375Z,17.22
2022-09-01T05:16:15.781Z,17.25
2022-09-01T05:18:47.499Z,17.25
2022-09-01T05:21:17.042Z,17.28
2022-09-01T05:23:44.998Z,17.29
2022-09-01T05:26:20.465Z,17.31
2022-09-01T05:28:48.702Z,17.34
2022-09-01T05:31:19.595Z,17.37
2022-09-01T05:33:50.912Z,17.38
2022-09-01T05:36:20.316Z,17.42
2022-09-01T05:38:48.095Z,17.43
2022-09-01T05:41:16.605Z,17.47
2022-09-01T05:43:49.758Z,17.50
2022-09-01T05:46:19.008Z,17.54
2022-09-01T05:48:45.934Z,17.58
2022-09-01T05:51:40.264Z,17.59
2022-09-01T05:54:03.385Z,17.71
2022-09-01T05:56:31.439Z,17.75
2022-09-01T06:01:50.445Z,17.75
2022-09-01T06:04:17.247Z,17.86
2022-09-01T06:07:07.090Z,17.95
2022-09-01T06:09:33.688Z,17.96
2022-09-01T06:12:00.124Z,17.96
2022-09-01T06:14:26.585Z,17.99
2022-09-01T06:16:54.123Z,18.05
2022-09-01T06:19:21.732Z,18.08
2022-09-01T06:21:48.958Z,18.10
2022-09-01T06:24:15.405Z,18.09
2022-09-01T06:26:41.921Z,18.11
2022-09-01T06:29:10.443Z,18.12
2022-09-01T06:31:39.353Z,18.17
2022-09-01T06:34:08.696Z,18.27
2022-09-01T06:36:40.390Z,18.28
2022-09-01T06:39:07.219Z,18.36
2022-09-01T06:41:33.682Z,18.38
2022-09-01T06:44:01.442Z,18.39
2022-09-01T06:46:29.414Z,18.43
2022-09-01T06:48:58.891Z,18.47
2022-09-01T06:51:28.542Z,18.47
2022-09-01T06:53:59.480Z,18.53
2022-09-01T06:56:30.993Z,18.53
2022-09-01T06:58:58.910Z,18.64
2022-09-01T07:01:27.563Z,18.61
2022-09-01T07:03:57.099Z,18.71
2022-09-01T07:09:22.147Z,18.66
2022-09-01T07:12:25.348Z,18.76
2022-09-01T07:17:42.517Z,18.82
2022-09-01T07:20:26.801Z,18.89
2022-09-01T07:23:10.461Z,18.96
2022-09-01T07:28:37.692Z,18.90
2022-09-01T07:33:54.328Z,19.05
2022-09-01T07:36:28.969Z,19.11
2022-09-01T07:42:59.197Z,18.96
2022-09-01T07:44:28.836Z,19.27
2022-09-01T07:52:29.268Z,19.34
2022-09-01T07:54:55.917Z,19.32
2022-09-01T07:57:22.960Z,19.35
2022-09-01T07:59:53.873Z,19.45
2022-09-01T08:02:20.413Z,19.48
2022-09-01T08:04:46.924Z,19.44
2022-09-01T08:07:17.040Z,19.56
2022-09-01T08:09:44.726Z,19.62
2022-09-01T08:12:11.818Z,19.55
2022-09-01T08:14:38.512Z,19.62
2022-09-01T08:19:53.418Z,19.64
2022-09-01T08:22:23.803Z,19.70
2022-09-01T08:24:50.956Z,19.79
2022-09-01T08:27:17.642Z,19.88
2022-09-01T08:29:44.210Z,19.95
2022-09-01T08:32:13.563Z,19.96
2022-09-01T08:34:40.006Z,19.99
2022-09-01T08:37:06.619Z,20.02
2022-09-01T08:39:33.119Z,20.02
2022-09-01T08:42:12.097Z,20.08
2022-09-01T08:44:46.932Z,20.18
2022-09-01T08:47:27.837Z,20.23
2022-09-01T08:49:54.544Z,20.27
2022-09-01T08:52:30.904Z,20.26
2022-09-01T08:55:15.186Z,20.32
2022-09-01T08:57:46.170Z,20.37
2022-09-01T09:00:15.632Z,20.31
2022-09-01T09:03:17.733Z,20.41
2022-09-01T09:06:07.729Z,20.51
2022-09-01T09:08:47.971Z,20.52
2022-09-01T09:11:42.279Z,20.57
2022-09-01T09:14:39.012Z,20.63
2022-09-01T09:17:05.806Z,20.68
2022-09-01T09:19:43.243Z,20.73
2022-09-01T09:22:13.031Z,20.76
2022-09-01T09:24:56.409Z,20.86
2022-09-01T09:27:26.893Z,20.84
2022-09-01T09:29:56.716Z,20.95
2022-09-01T09:32:44.294Z,20.99
2022-09-01T09:35:36.266Z,20.98
2022-09-01T09:38:21.040Z,20.97
2022-09-01T09:41:20.603Z,21.11
2022-09-01T09:43:58.687Z,21.13
2022-09-01T09:46:31.702Z,21.13
2022-09-01T09:49:36.123Z,21.08
2022-09-01T09:52:09.920Z,21.17
2022-09-01T09:54:38.899Z,21.14
2022-09-01T09:57:08.354Z,21.19
2022-09-01T10:00:04.581Z,21.17
2022-09-01T10:02:36.560Z,21.26
2022-09-01T10:05:44.229Z,21.28
2022-09-01T10:08:15.715Z,21.20
2022-09-01T10:10:57.841Z,21.29
2022-09-01T10:13:27.462Z,21.25
2022-09-01T10:15:56.757Z,21.39
2022-09-01T10:18:29.411Z,21.38
2022-09-01T10:21:02.732Z,21.41
2022-09-01T10:23:31.669Z,21.42
2022-09-01T10:26:13.094Z,21.45
2022-09-01T10:28:53.241Z,21.52
2022-09-01T10:31:20.428Z,21.49
2022-09-01T10:33:47.580Z,21.65
2022-09-01T10:36:15.121Z,21.64
2022-09-01T10:38:46.355Z,21.71
2022-09-01T10:41:58.133Z,21.72
2022-09-01T10:44:38.776Z,21.74
2022-09-01T10:47:14.701Z,21.81
2022-09-01T10:49:46.431Z,21.80
2022-09-01T10:52:43.405Z,21.77
2022-09-01T10:55:23.983Z,21.83
2022-09-01T11:01:40.542Z,21.87
2022-09-01T11:03:56.757Z,21.89
2022-09-01T11:06:42.372Z,21.96
2022-09-01T11:09:22.506Z,22.04
2022-09-01T11:11:56.065Z,22.07
2022-09-01T11:14:24.766Z,21.98
2022-09-01T11:17:29.298Z,21.92
2022-09-01T11:20:10.626Z,21.94
2022-09-01T11:22:41.688Z,21.96
2022-09-01T11:25:12.643Z,21.98
2022-09-01T11:27:48.485Z,22.02
2022-09-01T11:30:30.754Z,22.05
2022-09-01T11:33:20.184Z,22.12
2022-09-01T11:35:47.015Z,22.15
2022-09-01T11:38:15.565Z,22.18
2022-09-01T11:40:43.181Z,22.29
2022-09-01T11:43:14.376Z,22.40
2022-09-01T11:46:01.949Z,22.46
2022-09-01T11:48:30.354Z,22.38
2022-09-01T11:50:59.889Z,22.29
2022-09-01T11:53:27.235Z,22.43
2022-09-01T11:55:56.925Z,22.45
2022-09-01T11:58:27.688Z,22.49
2022-09-01T12:00:55.519Z,22.42
2022-09-01T12:03:29.750Z,22.39
2022-09-01T12:06:01.741Z,22.39
2022-09-01T12:08:31.396Z,22.44
2022-09-01T12:11:27.350Z,22.60
2022-09-01T12:13:56.864Z,22.60
2022-09-01T12:16:23.391Z,22.69
2022-09-01T12:18:52.565Z,22.71
2022-09-01T12:21:29.951Z,22.73
2022-09-01T12:24:15.997Z,22.86
2022-09-01T12:26:43.165Z,22.83
2022-09-01T12:29:11.292Z,22.89
2022-09-01T12:31:40.864Z,22.99
2022-09-01T12:34:24.050Z,23.02
2022-09-01T12:37:02.635Z,22.93
2022-09-01T12:39:44.801Z,22.98
2022-09-01T12:42:41.533Z,22.97
2022-09-01T12:45:12.447Z,23.06
2022-09-01T12:47:48.062Z,23.10
2022-09-01T12:50:16.583Z,23.17
2022-09-01T12:52:52.505Z,23.18
2022-09-01T12:58:10.086Z,23.32
2022-09-01T13:00:55.715Z,23.30
2022-09-01T13:03:22.915Z,23.40
2022-09-01T13:05:54.242Z,23.54
2022-09-01T13:08:22.799Z,23.50
2022-09-01T13:11:14.250Z,23.53
2022-09-01T13:13:40.718Z,23.54
2022-09-01T13:16:12.675Z,23.51
2022-09-01T13:21:30.502Z,23.59
2022-09-01T13:23:57.245Z,23.63
2022-09-01T13:26:24.055Z,23.67
2022-09-01T13:28:51.264Z,23.79
2022-09-01T13:31:34.159Z,23.77
2022-09-01T13:34:23.497Z,23.93
2022-09-01T13:36:51.617Z,24.01
2022-09-01T13:39:19.194Z,23.92
2022-09-01T13:41:47.186Z,23.94
2022-09-01T13:44:13.847Z,23.82
2022-09-01T13:50:05.052Z,23.70
2022-09-01T13:52:14.612Z,23.63
2022-09-01T13:54:41.106Z,23.68
2022-09-01T13:57:07.538Z,23.63
2022-09-01T13:59:34.055Z,23.66
2022-09-01T14:02:01.481Z,23.59
2022-09-01T14:04:28.042Z,23.68
2022-09-01T14:06:55.025Z,23.71
2022-09-01T14:09:21.866Z,23.77
2022-09-01T14:11:48.396Z,23.76
2022-09-01T14:14:14.838Z,23.86
2022-09-01T14:16:41.351Z,23.92
2022-09-01T14:19:07.964Z,23.96
2022-09-01T14:21:34.411Z,23.91
2022-09-01T14:24:01.230Z,23.97
2022-09-01T14:26:28.239Z,24.09
2022-09-01T14:28:54.940Z,24.16
2022-09-01T14:31:21.568Z,24.16
2022-09-01T14:33:49.074Z,24.10
2022-09-01T14:36:22.821Z,23.86
2022-09-01T14:38:50.282Z,23.86
2022-09-01T14:41:20.890Z,23.76
2022-09-01T14:43:47.598Z,23.66
2022-09-01T14:46:14.094Z,23.69
2022-09-01T14:48:41.209Z,23.60
2022-09-01T14:51:08.703Z,23.49
2022-09-01T14:53:35.650Z,23.58
2022-09-01T14:56:02.955Z,23.54
2022-09-01T14:58:29.944Z,23.56
2022-09-01T15:01:03.579Z,23.57
2022-09-01T15:03:34.379Z,23.59
2022-09-01T15:06:00.826Z,23.65
2022-09-01T15:08:27.292Z,23.66
2022-09-01T15:10:53.733Z,23.66
2022-09-01T15:13:20.198Z,23.60
2022-09-01T15:15:46.760Z,23.43
2022-09-01T15:18:13.383Z,23.44
2022-09-01T15:20:46.317Z,23.49
2022-09-01T15:23:15.932Z,23.58
2022-09-01T15:25:42.426Z,23.61
2022-09-01T15:28:08.989Z,23.69
2022-09-01T15:30:35.759Z,23.70
2022-09-01T15:33:02.544Z,23.68
2022-09-01T15:35:29.930Z,23.62
2022-09-01T15:37:56.534Z,23.58
2022-09-01T15:40:23.522Z,23.58
2022-09-01T15:42:50.007Z,23.56
2022-09-01T15:45:21.007Z,23.45
2022-09-01T15:47:50.848Z,23.54
2022-09-01T15:50:21.412Z,23.47
2022-09-01T15:52:55.908Z,23.39
2022-09-01T15:55:30.958Z,23.46
2022-09-01T15:57:58.908Z,23.49
2022-09-01T16:00:26.818Z,23.53
2022-09-01T16:02:54.523Z,23.55
2022-09-01T16:05:21.017Z,23.64
2022-09-01T16:07:47.613Z,23.70
2022-09-01T16:10:14.214Z,23.69
2022-09-01T16:12:43.799Z,23.79
2022-09-01T16:15:16.658Z,23.87
2022-09-01T16:17:56.905Z,23.94
2022-09-01T16:20:26.363Z,24.09
2022-09-01T16:22:57.456Z,24.15
2022-09-01T16:25:30.483Z,24.25
2022-09-01T16:27:57.870Z,24.16
2022-09-01T16:30:28.636Z,24.13
2022-09-01T16:32:58.416Z,24.22
2022-09-01T16:35:36.126Z,23.97
2022-09-01T16:38:33.079Z,24.01
2022-09-01T16:41:01.590Z,23.92
2022-09-01T16:43:39.194Z,23.78
2022-09-01T16:46:20.640Z,23.72
2022-09-01T16:49:08.268Z,23.75
2022-09-01T16:52:01.946Z,23.74
2022-09-01T16:54:43.020Z,23.76
2022-09-01T16:57:20.703Z,24.06
2022-09-01T16:59:58.903Z,23.95
2022-09-01T17:02:43.539Z,23.79
2022-09-01T17:05:24.629Z,23.63
2022-09-01T17:08:10.199Z,23.56
2022-09-01T17:11:14.343Z,23.45
2022-09-01T17:13:47.922Z,23.27
2022-09-01T17:16:36.934Z,23.22
2022-09-01T17:19:10.364Z,23.17
2022-09-01T17:21:49.425Z,23.04
2022-09-01T17:24:38.584Z,22.98
2022-09-01T17:27:10.916Z,22.87
2022-09-01T17:29:42.931Z,22.82
2022-09-01T17:32:19.542Z,22.75
2022-09-01T17:34:54.896Z,22.59
2022-09-01T17:37:28.771Z,22.55
2022-09-01T17:40:15.702Z,22.55
2022-09-01T17:42:55.474Z,22.49
2022-09-01T17:45:51.156Z,22.46
2022-09-01T17:48:29.134Z,22.39
2022-09-01T17:51:11.595Z,22.35
2022-09-01T17:53:48.173Z,22.32
2022-09-01T17:56:33.249Z,22.26
2022-09-01T17:59:26.714Z,22.17
2022-09-01T18:02:32.195Z,22.14
2022-09-01T18:05:14.268Z,22.11
2022-09-01T18:07:49.290Z,22.05
2022-09-01T18:10:23.214Z,22.01
2022-09-01T18:12:53.252Z,21.97
2022-09-01T18:15:23.873Z,21.95
2022-09-01T18:18:10.911Z,21.89
2022-09-01T18:20:46.040Z,21.85
2022-09-01T18:23:15.833Z,21.81
2022-09-01T18:25:49.680Z,21.75
2022-09-01T18:28:16.178Z,21.72
2022-09-01T18:31:07.410Z,21.68
2022-09-01T18:33:59.110Z,21.65
2022-09-01T18:37:01.095Z,21.58
2022-09-01T18:39:35.435Z,21.53
2022-09-01T18:42:11.204Z,21.49
2022-09-01T18:44:48.257Z,21.47
2022-09-01T18:47:17.405Z,21.44
2022-09-01T18:50:17.778Z,21.39
2022-09-01T18:53:16.421Z,21.34
2022-09-01T18:55:50.588Z,21.27
2022-09-01T18:58:41.923Z,21.23
2022-09-01T19:01:12.967Z,21.20
2022-09-01T19:03:50.206Z,21.16
2022-09-01T19:06:26.953Z,21.13
2022-09-01T19:09:24.344Z,21.09
2022-09-01T19:12:10.448Z,21.04
2022-09-01T19:14:37.256Z,21.00
2022-09-01T19:17:40.023Z,20.95
2022-09-01T19:20:16.377Z,20.93
2022-09-01T19:23:04.826Z,20.88
2022-09-01T19:25:34.185Z,20.81
2022-09-01T19:28:21.121Z,20.78
2022-09-01T19:31:06.425Z,20.72
2022-09-01T19:33:39.317Z,20.66
2022-09-01T19:36:09.129Z,20.63
2022-09-01T19:38:37.541Z,20.59
2022-09-01T19:41:12.861Z,20.56
2022-09-01T19:43:40.451Z,20.52
2022-09-01T19:46:35.741Z,20.47
2022-09-01T19:49:26.482Z,20.39
2022-09-01T19:52:04.140Z,20.33
2022-09-01T19:54:44.736Z,20.29
2022-09-01T19:57:21.967Z,20.25
2022-09-01T20:00:13.245Z,20.19
2022-09-01T20:03:01.096Z,20.10
2022-09-01T20:05:31.687Z,20.08
2022-09-01T20:08:06.605Z,20.04
2022-09-01T20:10:39.042Z,20.03
2022-09-01T20:13:29.873Z,20.00
2022-09-01T20:16:24.815Z,19.97
2022-09-01T20:19:00.044Z,19.88
2022-09-01T20:21:26.492Z,19.83
2022-09-01T20:23:57.950Z,19.81
2022-09-01T20:26:46.936Z,19.74
2022-09-01T20:29:25.180Z,19.73
2022-09-01T20:31:55.626Z,19.70
2022-09-01T20:34:52.842Z,19.68
2022-09-01T20:37:27.246Z,19.66
2022-09-01T20:40:01.911Z,19.63
2022-09-01T20:43:03.938Z,19.59
2022-09-01T20:45:31.905Z,19.60
2022-09-01T20:47:58.261Z,19.55
2022-09-01T20:50:57.662Z,19.51
2022-09-01T20:53:34.199Z,19.50
2022-09-01T20:56:22.053Z,19.42
2022-09-01T20:59:11.366Z,19.44
2022-09-01T21:01:47.357Z,19.43
2022-09-01T21:04:30.981Z,19.41
2022-09-01T21:07:08.568Z,19.38
2022-09-01T21:09:45.995Z,19.34
2022-09-01T21:12:31.408Z,19.27
2022-09-01T21:15:16.161Z,19.28
2022-09-01T21:17:57.828Z,19.26
2022-09-01T21:20:43.011Z,19.26
2022-09-01T21:23:09.479Z,19.14
2022-09-01T21:25:35.934Z,19.12
2022-09-01T21:28:04.839Z,19.09
2022-09-01T21:30:33.969Z,19.07
2022-09-01T21:33:00.947Z,19.05
2022-09-01T21:35:27.976Z,19.02
2022-09-01T21:37:54.650Z,18.99
2022-09-01T21:40:22.887Z,18.96
2022-09-01T21:42:51.085Z,18.96
2022-09-01T21:45:21.173Z,18.93
2022-09-01T21:47:48.878Z,18.91
2022-09-01T21:50:17.626Z,18.87
2022-09-01T21:52:44.201Z,18.86
2022-09-01T21:55:11.126Z,18.83
2022-09-01T21:57:37.719Z,18.81
2022-09-01T22:00:10.017Z,18.77
2022-09-01T22:02:37.288Z,18.75
2022-09-01T22:05:05.849Z,18.74
2022-09-01T22:07:40.196Z,18.73
2022-09-01T22:10:14.568Z,18.70
2022-09-01T22:12:42.707Z,18.63
2022-09-01T22:15:11.217Z,18.58
2022-09-01T22:17:37.654Z,18.56
2022-09-01T22:20:07.741Z,18.52
2022-09-01T22:22:34.407Z,18.49
2022-09-01T22:25:05.642Z,18.45
2022-09-01T22:27:32.060Z,18.43
2022-09-01T22:29:58.489Z,18.42
2022-09-01T22:32:27.730Z,18.40
2022-09-01T22:34:56.302Z,18.38
2022-09-01T22:37:23.050Z,18.35
2022-09-01T22:39:49.770Z,18.28
2022-09-01T22:42:16.222Z,18.24
2022-09-01T22:44:42.657Z,18.21
2022-09-01T22:47:09.076Z,18.20
2022-09-01T22:49:35.505Z,18.18
2022-09-01T22:52:02.039Z,18.14
2022-09-01T22:54:28.638Z,18.12
2022-09-01T22:56:56.386Z,18.09
2022-09-01T22:59:25.968Z,18.06
2022-09-01T23:01:53.001Z,18.05
2022-09-01T23:04:19.549Z,18.02
2022-09-01T23:06:49.501Z,18.00
2022-09-01T23:09:16.848Z,17.98
2022-09-01T23:11:43.844Z,17.96
2022-09-01T23:14:10.336Z,17.94
2022-09-01T23:16:36.924Z,17.90
2022-09-01T23:19:04.039Z,17.87
2022-09-01T23:21:32.962Z,17.86
2022-09-01T23:24:00.124Z,17.82
2022-09-01T23:26:28.310Z,17.81
2022-09-01T23:28:55.049Z,17.78
2022-09-01T23:31:25.241Z,17.75
2022-09-01T23:33:51.914Z,17.73
2022-09-01T23:36:20.996Z,17.70
2022-09-01T23:38:48.344Z,17.67
2022-09-01T23:41:18.284Z,17.67
2022-09-01T23:43:44.883Z,17.65
2022-09-01T23:46:26.334Z,17.63
2022-09-01T23:48:53.873Z,17.62
2022-09-01T23:51:21.617Z,17.59
2022-09-01T23:53:48.380Z,17.59
2022-09-01T23:56:18.002Z,17.58
2022-09-01T23:58:44.624Z,17.58
